Time;durP1;ratioP1;P1;durP2;ratioP2;P2;SDS_P1;SDS_P2;PMS_P1;PMS_P2;Temp;Humidity;BMP_temperature;BMP_pressure;BME280_temperature;BME280_humidity;BME280_pressure;Samples;Min_cycle;Max_cycle;Signal;HPM_P1;HPM_P2
2022/03/23 00:00:15;;;;;;;16.97;12.97;;;7.00;99.90;;;;;;5064353;28;20508;-83
2022/03/23 00:02:43;;;;;;;16.50;12.57;;;7.00;99.90;;;;;;5064635;28;20443;-83
2022/03/23 00:05:10;;;;;;;17.23;12.87;;;7.00;99.90;;;;;;5063374;28;20448;-83
2022/03/23 00:07:37;;;;;;;20.47;13.20;;;7.00;99.90;;;;;;5063701;28;20479;-83
2022/03/23 00:10:07;;;;;;;20.20;12.60;;;6.90;99.90;;;;;;5062733;28;20451;-82
2022/03/23 00:12:33;;;;;;;17.57;12.40;;;6.90;99.90;;;;;;5063816;28;20449;-82
2022/03/23 00:15:00;;;;;;;19.83;13.27;;;6.90;99.90;;;;;;5061624;28;20499;-83
2022/03/23 00:17:27;;;;;;;17.00;12.57;;;6.90;99.90;;;;;;5063344;28;20475;-83
2022/03/23 00:19:55;;;;;;;20.70;14.97;;;6.90;99.90;;;;;;5062381;28;20463;-82
2022/03/23 00:22:27;;;;;;;20.57;13.33;;;6.80;99.90;;;;;;5061319;28;20490;-82
2022/03/23 00:24:55;;;;;;;18.80;13.40;;;6.70;99.90;;;;;;5061972;28;20857;-83
2022/03/23 00:27:22;;;;;;;20.73;13.60;;;6.70;99.90;;;;;;5062548;28;20486;-82
2022/03/23 00:29:51;;;;;;;17.17;12.90;;;6.70;99.90;;;;;;5062742;28;21011;-82
2022/03/23 00:32:18;;;;;;;20.20;13.33;;;6.70;99.90;;;;;;5061874;28;20961;-84
2022/03/23 00:34:44;;;;;;;18.20;12.50;;;6.70;99.90;;;;;;5061391;28;20460;-83
2022/03/23 00:37:12;;;;;;;19.60;14.20;;;6.60;99.90;;;;;;5049061;28;20477;-80
2022/03/23 00:39:39;;;;;;;20.00;13.13;;;6.50;99.90;;;;;;5047112;28;20496;-81
2022/03/23 00:42:07;;;;;;;19.87;13.87;;;6.50;99.90;;;;;;5060583;28;20459;-84
2022/03/23 00:44:33;;;;;;;16.47;12.23;;;6.50;99.90;;;;;;5060317;28;20835;-81
2022/03/23 00:47:00;;;;;;;20.80;13.83;;;6.50;99.90;;;;;;5064555;28;20481;-83
2022/03/23 00:49:27;;;;;;;18.17;12.60;;;6.40;99.90;;;;;;5064782;28;20451;-83
2022/03/23 00:51:56;;;;;;;18.70;12.50;;;6.40;99.90;;;;;;5064407;28;20456;-85
2022/03/23 00:54:24;;;;;;;20.63;13.80;;;6.40;99.90;;;;;;5063722;28;20466;-86
2022/03/23 00:56:51;;;;;;;21.43;13.10;;;6.40;99.90;;;;;;5063380;28;20918;-84
2022/03/23 00:59:19;;;;;;;20.27;13.10;;;6.30;99.90;;;;;;5062188;28;20463;-83
2022/03/23 01:01:46;;;;;;;18.20;13.37;;;6.30;99.90;;;;;;5063436;28;20451;-84
2022/03/23 01:04:13;;;;;;;17.50;12.93;;;6.30;99.90;;;;;;5060777;28;20923;-84
2022/03/23 01:06:40;;;;;;;17.20;11.60;;;6.20;99.90;;;;;;5061818;28;20481;-84
2022/03/23 01:09:07;;;;;;;21.93;13.00;;;6.20;99.90;;;;;;5065260;28;20463;-82
2022/03/23 01:11:36;;;;;;;20.77;14.03;;;6.20;99.90;;;;;;5061631;28;20448;-82
2022/03/23 01:14:03;;;;;;;17.60;12.03;;;6.20;99.90;;;;;;5060898;28;20461;-83
2022/03/23 01:16:29;;;;;;;18.97;13.20;;;6.20;99.90;;;;;;5061311;28;20488;-84
2022/03/23 01:18:56;;;;;;;18.30;12.83;;;6.10;99.90;;;;;;5062972;28;20895;-83
2022/03/23 01:21:23;;;;;;;19.20;13.73;;;6.10;99.90;;;;;;5061437;28;20524;-83
2022/03/23 01:23:50;;;;;;;16.87;12.57;;;6.10;99.90;;;;;;5059778;28;20540;-83
2022/03/23 01:26:17;;;;;;;20.00;12.83;;;6.10;99.90;;;;;;5057990;28;20464;-83
2022/03/23 01:28:45;;;;;;;18.50;12.37;;;6.00;99.90;;;;;;5059106;28;20513;-84
2022/03/23 01:31:12;;;;;;;19.17;13.80;;;6.00;99.90;;;;;;5059460;28;20980;-83
2022/03/23 01:33:39;;;;;;;15.83;12.00;;;6.00;99.90;;;;;;5058740;28;20469;-83
2022/03/23 01:36:06;;;;;;;21.60;13.40;;;5.90;99.90;;;;;;5060602;28;20490;-83
2022/03/23 01:38:33;;;;;;;19.53;12.73;;;5.90;99.90;;;;;;5061361;28;20455;-83
2022/03/23 01:40:59;;;;;;;19.37;14.27;;;5.90;99.90;;;;;;5064523;28;20465;-84
2022/03/23 01:43:26;;;;;;;20.37;13.70;;;5.90;99.90;;;;;;5066062;28;20451;-84
2022/03/23 01:45:55;;;;;;;23.40;13.80;;;5.80;99.90;;;;;;5065900;28;20490;-83
2022/03/23 01:48:21;;;;;;;17.97;11.97;;;5.80;99.90;;;;;;5066440;28;20542;-85
2022/03/23 01:50:49;;;;;;;20.83;13.40;;;5.80;99.90;;;;;;5065803;28;20818;-82
2022/03/23 01:53:15;;;;;;;21.77;13.70;;;5.70;99.90;;;;;;5066360;28;20455;-85
2022/03/23 01:55:42;;;;;;;20.00;13.10;;;5.70;99.90;;;;;;5065557;28;20496;-83
2022/03/23 01:58:10;;;;;;;19.47;13.10;;;5.70;99.90;;;;;;5061508;28;20454;-84
2022/03/23 02:00:38;;;;;;;17.07;11.90;;;5.70;99.90;;;;;;5060824;28;20976;-83
2022/03/23 02:03:06;;;;;;;17.87;12.60;;;5.70;99.90;;;;;;5060733;28;20894;-82
2022/03/23 02:05:33;;;;;;;17.03;12.90;;;5.70;99.90;;;;;;5060616;28;20426;-83
2022/03/23 02:07:59;;;;;;;23.87;13.07;;;5.60;99.90;;;;;;5059326;28;20483;-82
2022/03/23 02:10:28;;;;;;;19.00;13.03;;;5.60;99.90;;;;;;5058742;28;20450;-82
2022/03/23 02:12:55;;;;;;;18.30;11.70;;;5.50;99.90;;;;;;5059822;28;20454;-83
2022/03/23 02:15:24;;;;;;;18.87;12.53;;;5.50;99.90;;;;;;5060978;28;20503;-83
2022/03/23 02:17:53;;;;;;;20.23;12.10;;;5.50;99.90;;;;;;5061237;28;20475;-83
2022/03/23 02:20:22;;;;;;;22.00;13.80;;;5.50;99.90;;;;;;5060488;28;20468;-84
2022/03/23 02:22:50;;;;;;;18.87;13.20;;;5.50;99.90;;;;;;5061525;28;20454;-85
2022/03/23 02:25:22;;;;;;;23.37;14.07;;;5.40;99.90;;;;;;5061160;28;20455;-83
2022/03/23 02:27:51;;;;;;;21.00;12.80;;;5.40;99.90;;;;;;5060888;28;20952;-83
2022/03/23 02:30:19;;;;;;;20.03;13.00;;;5.40;99.90;;;;;;5060955;28;20455;-83
2022/03/23 02:32:46;;;;;;;20.10;12.70;;;5.40;99.90;;;;;;5061570;28;20473;-83
2022/03/23 02:35:13;;;;;;;24.00;13.37;;;5.40;99.90;;;;;;5060431;28;20461;-83
2022/03/23 02:37:40;;;;;;;18.50;13.03;;;5.30;99.90;;;;;;5060199;28;20557;-83
2022/03/23 02:40:10;;;;;;;17.60;12.17;;;5.30;99.90;;;;;;5060215;28;20464;-83
2022/03/23 02:42:37;;;;;;;19.87;12.23;;;5.30;99.90;;;;;;5060843;28;20454;-84
2022/03/23 02:45:04;;;;;;;17.00;12.37;;;5.30;99.90;;;;;;5060779;28;20446;-86
2022/03/23 02:47:32;;;;;;;18.97;12.97;;;5.30;99.90;;;;;;5062932;28;20478;-85
2022/03/23 02:49:58;;;;;;;19.37;13.83;;;5.20;99.90;;;;;;5061786;28;20522;-84
2022/03/23 02:52:27;;;;;;;21.07;12.50;;;5.20;99.90;;;;;;5060116;28;20478;-83
2022/03/23 03:03:46;;;;;;;17.50;12.83;;;5.10;99.90;;;;;;5038662;28;20471;-83
2022/03/23 03:06:13;;;;;;;18.23;12.43;;;5.10;99.90;;;;;;5046257;28;20542;-83
2022/03/23 03:08:47;;;;;;;20.20;14.40;;;5.10;99.90;;;;;;5065068;28;20450;-85
2022/03/23 03:11:14;;;;;;;19.87;13.53;;;5.00;99.90;;;;;;5064708;28;20477;-83
2022/03/23 03:13:43;;;;;;;18.20;12.20;;;5.10;99.90;;;;;;5064015;28;20454;-84
2022/03/23 03:16:10;;;;;;;23.90;15.07;;;5.10;99.90;;;;;;5066181;28;20490;-84
2022/03/23 03:18:37;;;;;;;17.10;11.67;;;5.00;99.90;;;;;;5064602;28;20461;-83
2022/03/23 03:21:06;;;;;;;21.53;13.73;;;5.00;99.90;;;;;;5066083;28;20535;-84
2022/03/23 03:23:33;;;;;;;18.27;12.67;;;5.00;99.90;;;;;;5064770;28;20451;-84
2022/03/23 03:26:01;;;;;;;23.20;13.87;;;5.00;99.90;;;;;;5060470;28;20503;-84
2022/03/23 03:28:28;;;;;;;22.67;13.40;;;5.00;99.90;;;;;;5060428;28;20463;-83
2022/03/23 03:34:18;;;;;;;20.30;12.90;;;5.00;99.90;;;;;;5057910;28;20402;-85
2022/03/23 03:36:45;;;;;;;22.17;12.67;;;5.00;99.90;;;;;;5062677;28;20491;-85
2022/03/23 03:39:12;;;;;;;18.80;14.03;;;4.90;99.90;;;;;;5058911;28;20466;-83
2022/03/23 03:41:39;;;;;;;22.73;13.60;;;4.90;99.90;;;;;;5058706;28;20493;-83
2022/03/23 03:44:07;;;;;;;21.90;14.13;;;4.80;99.90;;;;;;5060804;28;20459;-86
2022/03/23 03:46:34;;;;;;;21.97;14.03;;;4.80;99.90;;;;;;5059420;28;20549;-84
2022/03/23 03:49:01;;;;;;;19.87;13.27;;;4.80;99.90;;;;;;5057744;28;20463;-84
2022/03/23 03:51:29;;;;;;;19.40;12.57;;;4.80;99.90;;;;;;5058173;28;20494;-86
2022/03/23 03:53:56;;;;;;;22.07;14.00;;;4.80;99.90;;;;;;5060180;28;20451;-83
2022/03/23 03:56:22;;;;;;;19.13;13.57;;;4.70;99.90;;;;;;5058138;28;20471;-84
2022/03/23 03:58:49;;;;;;;18.67;13.87;;;4.70;99.90;;;;;;5062125;28;20460;-84
2022/03/23 04:01:16;;;;;;;19.17;13.33;;;4.70;99.90;;;;;;5058761;28;20531;-82
2022/03/23 04:03:43;;;;;;;19.37;13.50;;;4.70;99.90;;;;;;5065791;28;20503;-83
2022/03/23 04:06:10;;;;;;;20.07;13.40;;;4.70;99.90;;;;;;5061522;28;20666;-83
2022/03/23 04:08:38;;;;;;;19.30;13.70;;;4.70;99.90;;;;;;5060296;28;20449;-83
2022/03/23 04:11:05;;;;;;;21.63;14.10;;;4.70;99.90;;;;;;5062180;28;20845;-83
2022/03/23 04:13:32;;;;;;;21.03;13.20;;;4.70;99.90;;;;;;5059968;28;20464;-83
2022/03/23 04:15:59;;;;;;;23.03;14.00;;;4.70;99.90;;;;;;5061824;28;20482;-83
2022/03/23 04:18:26;;;;;;;20.57;13.60;;;4.70;99.90;;;;;;5064024;28;20459;-83
2022/03/23 04:20:53;;;;;;;21.50;14.80;;;4.60;99.90;;;;;;5063176;28;20474;-83
2022/03/23 04:23:20;;;;;;;21.03;12.30;;;4.60;99.90;;;;;;5060699;28;20529;-83
2022/03/23 04:25:48;;;;;;;17.00;13.47;;;4.60;99.90;;;;;;5064371;28;20474;-84
2022/03/23 04:28:15;;;;;;;19.50;12.77;;;4.60;99.90;;;;;;5061933;28;20544;-83
2022/03/23 04:30:43;;;;;;;23.20;12.83;;;4.60;99.90;;;;;;5059635;28;20553;-83
2022/03/23 04:33:10;;;;;;;18.70;12.73;;;4.60;99.90;;;;;;5059427;28;20458;-83
2022/03/23 04:35:37;;;;;;;27.33;14.60;;;4.60;99.90;;;;;;5064144;28;20517;-84
2022/03/23 04:38:04;;;;;;;21.10;14.07;;;4.60;99.90;;;;;;5063903;28;20445;-83
2022/03/23 04:40:31;;;;;;;23.00;14.60;;;4.60;99.90;;;;;;5061160;28;20933;-83
2022/03/23 04:42:59;;;;;;;21.67;14.00;;;4.60;99.90;;;;;;5063179;28;20454;-84
2022/03/23 04:45:26;;;;;;;20.47;13.33;;;4.50;99.90;;;;;;5061324;28;20482;-84
2022/03/23 04:47:53;;;;;;;20.97;13.10;;;4.60;99.90;;;;;;5063334;28;20870;-82
2022/03/23 04:50:20;;;;;;;17.63;13.40;;;4.50;99.90;;;;;;5064292;28;20465;-84
2022/03/23 04:52:47;;;;;;;19.80;13.70;;;4.50;99.90;;;;;;5065762;28;20461;-85
2022/03/23 04:55:15;;;;;;;19.87;13.23;;;4.50;99.90;;;;;;5066593;28;20455;-84
2022/03/23 04:57:43;;;;;;;21.97;14.17;;;4.50;99.90;;;;;;5067236;28;20469;-84
2022/03/23 05:00:15;;;;;;;18.40;12.47;;;4.50;99.90;;;;;;5067353;28;20465;-85
2022/03/23 05:02:43;;;;;;;23.40;13.83;;;4.50;99.90;;;;;;5066582;28;20500;-85
2022/03/23 05:05:12;;;;;;;21.77;14.57;;;4.50;99.90;;;;;;5066595;28;20448;-84
2022/03/23 05:07:39;;;;;;;20.87;13.80;;;4.50;99.90;;;;;;5068024;28;20493;-85
2022/03/23 05:10:08;;;;;;;23.13;14.10;;;4.50;99.90;;;;;;5067372;28;20454;-82
2022/03/23 05:12:35;;;;;;;22.70;13.87;;;4.50;99.90;;;;;;5065860;28;20453;-85
2022/03/23 05:15:04;;;;;;;19.43;13.80;;;4.50;99.90;;;;;;5066380;28;20601;-85
2022/03/23 05:17:32;;;;;;;20.10;13.90;;;4.50;99.90;;;;;;5067268;28;20467;-86
2022/03/23 05:20:01;;;;;;;18.70;12.83;;;4.50;99.90;;;;;;5066743;28;20542;-85
2022/03/23 05:22:28;;;;;;;19.40;13.47;;;4.50;99.90;;;;;;5073642;28;20434;-85
2022/03/23 05:24:55;;;;;;;23.93;15.03;;;4.40;99.90;;;;;;5066193;28;20495;-85
2022/03/23 05:27:22;;;;;;;22.50;14.17;;;4.40;99.90;;;;;;5067755;28;20495;-83
2022/03/23 05:29:49;;;;;;;18.70;14.23;;;4.40;99.90;;;;;;5067697;28;20466;-85
2022/03/23 05:32:17;;;;;;;19.93;13.80;;;4.40;99.90;;;;;;5068000;28;20445;-85
2022/03/23 05:34:46;;;;;;;20.90;14.10;;;4.40;99.90;;;;;;5067712;28;20463;-84
2022/03/23 05:37:13;;;;;;;21.70;14.63;;;4.40;99.90;;;;;;5064836;28;21001;-83
2022/03/23 05:39:40;;;;;;;24.43;15.50;;;4.40;99.90;;;;;;5070892;28;20851;-81
2022/03/23 05:42:08;;;;;;;21.40;13.20;;;4.40;99.90;;;;;;5069016;28;20901;-82
2022/03/23 05:44:35;;;;;;;21.20;15.30;;;4.40;99.90;;;;;;5070307;28;20478;-81
2022/03/23 05:47:02;;;;;;;22.03;13.90;;;4.30;99.90;;;;;;5079491;28;20492;-81
2022/03/23 05:49:29;;;;;;;22.53;12.57;;;4.40;99.90;;;;;;5067139;28;20443;-82
2022/03/23 05:51:57;;;;;;;22.30;15.47;;;4.40;99.90;;;;;;5067226;28;20442;-82
2022/03/23 05:54:24;;;;;;;26.63;16.07;;;4.40;99.90;;;;;;5076532;28;20456;-82
2022/03/23 05:56:51;;;;;;;22.73;15.03;;;4.50;99.90;;;;;;5077164;28;20487;-82
2022/03/23 05:59:19;;;;;;;22.30;14.07;;;4.50;99.90;;;;;;5077734;28;20440;-82
2022/03/23 06:01:46;;;;;;;24.67;15.27;;;4.50;99.90;;;;;;5081538;28;20510;-82
2022/03/23 06:04:13;;;;;;;19.60;13.47;;;4.50;99.90;;;;;;5076515;28;20510;-82
2022/03/23 06:06:40;;;;;;;17.63;13.03;;;4.60;99.90;;;;;;5077036;28;20486;-81
2022/03/23 06:09:08;;;;;;;20.27;13.90;;;4.60;99.90;;;;;;5076012;28;20517;-81
2022/03/23 06:11:35;;;;;;;23.90;15.67;;;4.70;99.90;;;;;;5076946;28;20430;-81
2022/03/23 06:14:02;;;;;;;26.93;13.97;;;4.70;99.90;;;;;;5077214;28;20451;-81
2022/03/23 06:16:29;;;;;;;17.70;13.50;;;4.70;99.90;;;;;;5077166;28;20451;-81
2022/03/23 06:18:56;;;;;;;19.60;13.37;;;4.70;99.90;;;;;;5077555;28;20455;-82
2022/03/23 06:21:22;;;;;;;21.60;14.63;;;4.80;99.90;;;;;;5076584;28;20430;-82
2022/03/23 06:23:49;;;;;;;21.77;12.83;;;4.90;99.90;;;;;;5076676;28;20499;-81
2022/03/23 06:26:18;;;;;;;22.20;14.77;;;5.00;99.90;;;;;;5076759;28;20486;-81
2022/03/23 06:28:44;;;;;;;25.63;14.20;;;5.10;99.90;;;;;;5077221;28;20473;-81
2022/03/23 06:31:11;;;;;;;21.00;14.23;;;5.20;99.90;;;;;;5077152;28;20449;-82
2022/03/23 06:33:38;;;;;;;20.40;13.97;;;5.30;99.90;;;;;;5075579;28;20468;-82
2022/03/23 06:36:06;;;;;;;23.97;14.20;;;5.30;99.90;;;;;;5069540;28;20486;-82
2022/03/23 06:38:32;;;;;;;21.07;14.23;;;5.40;99.90;;;;;;5069303;28;20448;-82
2022/03/23 06:40:59;;;;;;;18.10;13.77;;;5.50;99.90;;;;;;5074766;28;20507;-82
2022/03/23 06:43:27;;;;;;;25.50;15.27;;;5.70;99.90;;;;;;5076751;28;20462;-81
2022/03/23 06:45:54;;;;;;;23.87;16.00;;;5.70;99.90;;;;;;5077449;28;20467;-82
2022/03/23 06:48:21;;;;;;;20.90;13.90;;;5.90;99.90;;;;;;5077231;28;20624;-82
2022/03/23 06:50:48;;;;;;;26.23;15.40;;;5.90;99.90;;;;;;5074925;28;20436;-83
2022/03/23 06:53:14;;;;;;;20.87;14.80;;;6.10;99.90;;;;;;5075907;28;20450;-83
2022/03/23 06:55:41;;;;;;;23.70;15.00;;;6.20;99.90;;;;;;5068724;28;20464;-84
2022/03/23 06:58:08;;;;;;;21.17;14.80;;;6.30;99.90;;;;;;5068463;28;20840;-84
2022/03/23 07:00:38;;;;;;;20.10;14.87;;;6.40;99.90;;;;;;5072662;28;20450;-82
2022/03/23 07:03:05;;;;;;;21.63;15.07;;;6.60;99.90;;;;;;5082208;28;20983;-83
2022/03/23 07:05:33;;;;;;;22.53;14.10;;;6.70;99.90;;;;;;5067776;28;20527;-82
2022/03/23 07:10:44;;;;;;;20.20;13.80;;;6.90;99.90;;;;;;5068523;28;20538;-82
2022/03/23 07:13:13;;;;;;;23.43;14.13;;;7.10;99.90;;;;;;5060238;28;20553;-82
2022/03/23 07:15:46;;;;;;;20.40;14.63;;;7.30;99.90;;;;;;5064471;28;20498;-82
2022/03/23 07:18:16;;;;;;;27.00;14.77;;;7.40;99.90;;;;;;5071584;28;20443;-82
2022/03/23 07:20:44;;;;;;;19.77;14.20;;;7.60;99.90;;;;;;5074635;28;20517;-82
2022/03/23 07:23:11;;;;;;;22.47;14.03;;;7.70;99.90;;;;;;5081482;28;20425;-82
2022/03/23 07:25:38;;;;;;;22.17;14.73;;;8.00;99.90;;;;;;5080024;28;20451;-82
2022/03/23 07:28:06;;;;;;;22.33;13.50;;;8.10;99.90;;;;;;5086263;28;20475;-82
2022/03/23 07:30:35;;;;;;;21.67;14.30;;;8.20;99.90;;;;;;5083860;28;20442;-82
2022/03/23 07:33:03;;;;;;;21.00;14.77;;;8.40;99.90;;;;;;5089702;28;20425;-79
2022/03/23 07:35:31;;;;;;;21.10;13.93;;;8.50;99.90;;;;;;5080955;28;20460;-81
2022/03/23 07:37:58;;;;;;;23.87;15.73;;;8.60;99.90;;;;;;5088461;28;20430;-81
2022/03/23 07:40:25;;;;;;;21.10;14.23;;;8.80;99.90;;;;;;5084888;28;20451;-80
2022/03/23 07:42:59;;;;;;;20.40;13.70;;;8.90;99.90;;;;;;5083449;28;20471;-80
2022/03/23 07:45:26;;;;;;;20.27;13.70;;;9.10;99.90;;;;;;5080567;28;20505;-82
2022/03/23 07:47:55;;;;;;;20.67;13.50;;;9.20;99.90;;;;;;5096922;28;20470;-82
2022/03/23 07:50:24;;;;;;;23.40;14.83;;;9.40;99.90;;;;;;5089439;28;20465;-81
2022/03/23 07:52:51;;;;;;;24.23;13.90;;;9.80;99.90;;;;;;5084232;28;20463;-79
2022/03/23 07:55:18;;;;;;;21.83;14.30;;;10.40;99.90;;;;;;5085526;28;20447;-80
2022/03/23 07:57:46;;;;;;;19.90;14.23;;;11.00;99.90;;;;;;5083195;28;20463;-81
2022/03/23 08:00:14;;;;;;;18.30;12.63;;;11.50;99.90;;;;;;5086345;28;20447;-81
2022/03/23 08:02:48;;;;;;;20.73;12.90;;;12.00;99.90;;;;;;5080741;28;20438;-81
2022/03/23 08:05:14;;;;;;;18.73;13.13;;;12.60;99.90;;;;;;5085105;28;20483;-81
2022/03/23 08:07:43;;;;;;;16.77;12.87;;;13.00;99.90;;;;;;5079520;28;20477;-81
2022/03/23 08:10:10;;;;;;;19.93;12.90;;;13.60;99.90;;;;;;5087641;28;20423;-82
2022/03/23 08:12:37;;;;;;;25.33;13.70;;;14.00;99.90;;;;;;5091807;28;20452;-82
2022/03/23 08:15:05;;;;;;;18.90;13.03;;;14.70;99.90;;;;;;5080903;28;20526;-81
2022/03/23 08:17:31;;;;;;;15.60;13.20;;;15.30;99.90;;;;;;5075771;28;20499;-82
2022/03/23 08:22:44;;;;;;;20.17;12.17;;;16.80;99.90;;;;;;5071325;28;20811;-81
2022/03/23 08:25:11;;;;;;;18.67;12.73;;;18.20;99.90;;;;;;5066359;28;20456;-81
2022/03/23 08:27:38;;;;;;;17.30;13.20;;;18.90;96.30;;;;;;5059894;28;20555;-81
2022/03/23 08:30:06;;;;;;;14.43;12.70;;;19.80;90.20;;;;;;5059723;28;20468;-83
2022/03/23 08:32:32;;;;;;;22.57;14.40;;;20.60;83.40;;;;;;5062210;28;20457;-82
2022/03/23 08:34:59;;;;;;;14.57;12.03;;;21.20;82.60;;;;;;5058481;28;20483;-79
2022/03/23 08:37:26;;;;;;;17.23;12.67;;;22.10;78.80;;;;;;5053899;28;20487;-80
2022/03/23 08:39:54;;;;;;;14.30;12.80;;;23.10;73.10;;;;;;5050468;28;20472;-79
2022/03/23 08:42:21;;;;;;;18.60;12.37;;;24.50;68.60;;;;;;5051413;28;20498;-81
2022/03/23 08:44:48;;;;;;;15.80;13.90;;;25.60;62.20;;;;;;5050404;28;20464;-81
2022/03/23 08:47:16;;;;;;;16.37;13.03;;;26.80;59.10;;;;;;5057951;28;20482;-80
2022/03/23 08:49:43;;;;;;;17.70;14.63;;;27.70;54.90;;;;;;5057120;28;20460;-79
2022/03/23 08:52:10;;;;;;;18.03;14.70;;;28.40;51.20;;;;;;5057101;28;20460;-80
2022/03/23 08:54:37;;;;;;;18.83;14.73;;;28.50;48.10;;;;;;5044369;28;20510;-80
2022/03/23 08:57:05;;;;;;;20.80;15.80;;;27.80;46.40;;;;;;5048460;28;20476;-81
2022/03/23 08:59:32;;;;;;;21.30;15.27;;;28.00;46.80;;;;;;5055098;28;20458;-81
2022/03/23 09:01:59;;;;;;;16.87;14.60;;;27.60;47.80;;;;;;5051787;28;20538;-82
2022/03/23 09:04:26;;;;;;;16.17;14.47;;;28.10;48.10;;;;;;5050088;28;20463;-80
2022/03/23 09:06:53;;;;;;;16.50;14.87;;;28.00;45.70;;;;;;5051758;28;20471;-82
2022/03/23 09:09:20;;;;;;;19.53;17.60;;;28.90;45.10;;;;;;5049920;28;20926;-82
2022/03/23 09:11:46;;;;;;;18.63;16.40;;;29.10;43.60;;;;;;5053745;28;20502;-82
2022/03/23 09:14:15;;;;;;;18.60;16.60;;;28.50;43.50;;;;;;5053072;28;20965;-82
2022/03/23 09:16:43;;;;;;;25.20;17.87;;;28.80;46.20;;;;;;5058245;28;20976;-82
2022/03/23 09:19:10;;;;;;;18.97;15.90;;;29.90;43.90;;;;;;5051170;28;20481;-83
2022/03/23 09:21:38;;;;;;;16.17;14.57;;;31.10;42.50;;;;;;5044025;28;21022;-83
2022/03/23 09:24:11;;;;;;;18.90;15.17;;;31.90;41.10;;;;;;5047289;28;20486;-83
2022/03/23 09:26:39;;;;;;;18.77;14.00;;;31.60;41.80;;;;;;5064467;28;20616;-82
2022/03/23 09:29:06;;;;;;;16.80;15.00;;;32.70;42.50;;;;;;5063016;28;20517;-82
2022/03/23 09:31:34;;;;;;;18.93;16.97;;;33.30;41.30;;;;;;5066161;28;20460;-82
2022/03/23 09:34:02;;;;;;;18.87;16.97;;;32.60;41.50;;;;;;5064094;28;20889;-83
2022/03/23 09:39:13;;;;;;;21.13;18.50;;;32.80;38.30;;;;;;5065056;28;20474;-82
2022/03/23 09:41:43;;;;;;;19.73;17.13;;;32.00;38.50;;;;;;5060300;28;20455;-82
2022/03/23 09:44:11;;;;;;;21.47;19.30;;;31.30;38.40;;;;;;5069186;28;20456;-82
2022/03/23 09:46:39;;;;;;;21.53;19.43;;;31.10;38.80;;;;;;5069479;28;20528;-82
2022/03/23 09:49:07;;;;;;;19.23;17.20;;;30.80;42.00;;;;;;5070476;28;20462;-82
2022/03/23 09:51:36;;;;;;;21.10;18.80;;;30.70;41.70;;;;;;5069815;28;20436;-82
2022/03/23 09:54:04;;;;;;;21.93;19.53;;;29.80;39.50;;;;;;5069899;28;20470;-82
2022/03/23 09:56:31;;;;;;;20.80;18.70;;;30.00;39.50;;;;;;5067042;28;20486;-82
2022/03/23 09:58:58;;;;;;;20.17;18.03;;;31.50;39.60;;;;;;5066801;28;20535;-82
2022/03/23 10:01:54;;;;;;;24.87;20.50;;;32.10;40.20;;;;;;5071680;28;20444;-82
2022/03/23 10:05:08;;;;;;;19.17;17.17;;;29.80;40.60;;;;;;5036275;28;20460;-83
2022/03/23 10:11:38;;;;;;;18.83;17.07;;;32.20;38.00;;;;;;5045899;28;20447;-82
2022/03/23 10:14:48;;;;;;;22.00;19.67;;;32.80;40.10;;;;;;5065569;28;20498;-82
2022/03/23 10:17:42;;;;;;;20.90;17.63;;;32.70;38.60;;;;;;5010527;28;20526;-82
2022/03/23 10:20:12;;;;;;;20.40;18.20;;;33.80;36.50;;;;;;5066084;28;20509;-82
2022/03/23 10:22:46;;;;;;;21.50;19.20;;;35.00;37.30;;;;;;5068478;28;20448;-82
2022/03/23 10:25:14;;;;;;;21.10;19.10;;;34.60;38.60;;;;;;5072224;28;20439;-80
2022/03/23 10:27:41;;;;;;;20.73;18.80;;;35.50;37.40;;;;;;5070856;28;20495;-83
2022/03/23 10:30:08;;;;;;;21.57;19.33;;;35.70;37.70;;;;;;5073688;28;20444;-81
2022/03/23 10:32:36;;;;;;;19.87;17.90;;;35.60;36.60;;;;;;5069140;28;20491;-80
2022/03/23 10:35:05;;;;;;;19.67;17.70;;;35.20;36.00;;;;;;5065211;28;20455;-82
2022/03/23 10:37:35;;;;;;;21.83;19.73;;;36.20;34.80;;;;;;5064852;28;20583;-83
2022/03/23 10:40:07;;;;;;;19.37;17.57;;;35.80;34.00;;;;;;5067596;28;20884;-83
2022/03/23 10:42:36;;;;;;;18.93;17.13;;;36.70;34.80;;;;;;5074144;28;20436;-82
2022/03/23 10:45:06;;;;;;;18.53;16.73;;;36.00;32.70;;;;;;5071911;28;20475;-82
2022/03/23 10:47:33;;;;;;;18.33;16.73;;;36.20;33.60;;;;;;5076225;28;20471;-82
2022/03/23 10:50:11;;;;;;;20.30;17.53;;;35.90;32.90;;;;;;5075334;28;20440;-82
2022/03/23 10:52:52;;;;;;;19.30;17.40;;;36.30;34.10;;;;;;5068479;28;20432;-83
2022/03/23 10:55:19;;;;;;;21.73;19.50;;;35.20;33.00;;;;;;5073529;28;20450;-83
2022/03/23 11:01:09;;;;;;;18.30;16.40;;;33.60;36.40;;;;;;5070856;28;20399;-83
2022/03/23 11:03:42;;;;;;;18.77;16.87;;;33.70;33.80;;;;;;5067664;28;20466;-83
2022/03/23 11:06:10;;;;;;;19.23;17.33;;;34.20;35.60;;;;;;5073248;28;20471;-84
2022/03/23 11:08:39;;;;;;;18.50;16.70;;;35.20;36.00;;;;;;5072527;28;20440;-82
2022/03/23 11:16:39;;;;;;;20.00;18.07;;;36.80;33.80;;;;;;5074385;28;20467;-83
2022/03/23 11:19:17;;;;;;;21.80;19.77;;;35.20;34.30;;;;;;5077231;28;20487;-83
2022/03/23 11:22:05;;;;;;;19.10;16.40;;;35.30;32.90;;;;;;5079313;28;20447;-83
2022/03/23 11:24:36;;;;;;;18.57;16.70;;;35.60;33.20;;;;;;5075505;28;20458;-83
2022/03/23 11:27:06;;;;;;;20.53;17.57;;;35.90;31.40;;;;;;5080816;28;20528;-82
2022/03/23 11:29:33;;;;;;;20.13;18.17;;;36.30;31.70;;;;;;5080257;28;20439;-84
2022/03/23 11:32:04;;;;;;;17.37;15.67;;;34.40;31.70;;;;;;5081020;28;20428;-83
2022/03/23 11:34:33;;;;;;;18.87;17.10;;;35.10;35.10;;;;;;5079660;28;20455;-83
2022/03/23 11:37:00;;;;;;;16.70;15.20;;;35.30;30.60;;;;;;5080995;28;20471;-84
2022/03/23 11:39:28;;;;;;;18.93;16.93;;;37.00;31.80;;;;;;5080340;28;20513;-82
2022/03/23 11:41:58;;;;;;;18.83;16.93;;;35.20;31.60;;;;;;5076367;28;20431;-82
2022/03/23 11:44:26;;;;;;;18.53;16.73;;;35.30;32.20;;;;;;5073340;28;20443;-83
2022/03/23 11:46:58;;;;;;;19.03;17.10;;;35.50;31.90;;;;;;5072672;28;20448;-83
2022/03/23 11:49:32;;;;;;;18.67;16.87;;;36.30;31.50;;;;;;5077469;28;20435;-82
2022/03/23 11:52:13;;;;;;;16.80;15.27;;;35.80;30.80;;;;;;5074861;28;20435;-84
2022/03/23 11:58:18;;;;;;;14.17;12.93;;;35.80;33.30;;;;;;5073854;28;20510;-84
2022/03/23 12:00:50;;;;;;;16.80;15.23;;;38.10;31.30;;;;;;4994485;28;20440;-84
2022/03/23 12:03:53;;;;;;;15.97;14.33;;;38.40;29.80;;;;;;5055226;28;20459;-83
2022/03/23 12:06:22;;;;;;;16.67;15.27;;;38.50;33.00;;;;;;5073981;28;20466;-83
2022/03/23 12:08:51;;;;;;;16.50;15.00;;;39.10;33.20;;;;;;5080454;28;20457;-83
2022/03/23 12:11:50;;;;;;;19.33;17.40;;;39.20;29.10;;;;;;5079875;28;20443;-83
2022/03/23 12:14:25;;;;;;;18.93;17.13;;;36.30;29.40;;;;;;5076104;28;20527;-83
2022/03/23 12:17:16;;;;;;;19.80;18.10;;;36.60;31.30;;;;;;5083593;28;20464;-82
2022/03/23 12:20:05;;;;;;;19.23;17.43;;;35.50;30.30;;;;;;5071603;28;20478;-81
2022/03/23 12:22:54;;;;;;;22.83;17.80;;;36.10;29.80;;;;;;5068643;28;20452;-83
2022/03/23 12:25:25;;;;;;;20.60;18.80;;;35.80;30.00;;;;;;5061200;28;20493;-80
2022/03/23 12:27:59;;;;;;;19.00;17.30;;;35.80;29.40;;;;;;5058089;28;20447;-84
2022/03/23 12:30:39;;;;;;;17.40;15.60;;;37.00;29.20;;;;;;5070617;28;20447;-83
2022/03/23 12:33:14;;;;;;;16.53;15.10;;;37.80;28.60;;;;;;5062556;28;20482;-84
2022/03/23 12:35:41;;;;;;;18.97;15.53;;;37.00;29.00;;;;;;5063591;28;20462;-82
2022/03/23 12:38:19;;;;;;;17.10;15.37;;;36.70;28.50;;;;;;5072808;28;20512;-80
2022/03/23 12:40:48;;;;;;;17.07;15.50;;;37.30;32.20;;;;;;5065859;28;20471;-81
2022/03/23 12:43:38;;;;;;;18.07;16.23;;;36.90;30.30;;;;;;5061322;28;20482;-82
2022/03/23 12:46:07;;;;;;;19.03;17.13;;;37.80;32.60;;;;;;5063276;28;20543;-83
2022/03/23 12:59:39;;;;;;;15.60;14.10;;;37.60;29.00;;;;;;5050268;28;20482;-83
2022/03/23 13:02:28;;;;;;;17.33;15.73;;;37.30;30.90;;;;;;5059479;28;20463;-84
2022/03/23 13:04:57;;;;;;;16.20;14.80;;;38.10;28.80;;;;;;5058403;28;20495;-83
2022/03/23 13:07:44;;;;;;;17.80;16.23;;;38.50;29.60;;;;;;5055101;28;20476;-83
2022/03/23 13:10:15;;;;;;;18.23;16.57;;;39.20;29.70;;;;;;5049208;28;20449;-84
2022/03/23 13:12:44;;;;;;;18.33;16.73;;;39.80;29.70;;;;;;5052983;28;20432;-84
2022/03/23 13:15:14;;;;;;;19.07;17.47;;;40.10;28.80;;;;;;5059932;28;20448;-83
2022/03/23 13:17:41;;;;;;;20.20;17.97;;;39.80;29.90;;;;;;5059131;28;20500;-83
2022/03/23 13:20:19;;;;;;;19.33;17.63;;;39.00;28.60;;;;;;5055684;28;20523;-84
2022/03/23 13:22:47;;;;;;;19.17;17.50;;;38.60;30.00;;;;;;5051601;28;20548;-83
2022/03/23 13:25:16;;;;;;;17.53;16.03;;;39.30;29.30;;;;;;5056841;28;20465;-84
2022/03/23 13:27:43;;;;;;;18.50;16.70;;;39.90;27.80;;;;;;5054830;28;20463;-84
2022/03/23 13:30:12;;;;;;;20.57;18.67;;;39.60;27.90;;;;;;5058243;28;20458;-83